createdAt,value
2023-03-19T00:00:28.937Z,100300.56
2023-03-19T00:02:57.108Z,100295.38
2023-03-19T00:05:25.225Z,100299.31
2023-03-19T00:08:08.409Z,100294.75
2023-03-19T00:10:39.418Z,100283.34
2023-03-19T00:13:07.321Z,100280.63
2023-03-19T00:15:36.795Z,100272.78
2023-03-19T00:18:06.263Z,100278.16
2023-03-19T00:20:34.272Z,100285.44
2023-03-19T00:23:02.210Z,100286.25
2023-03-19T00:25:30.306Z,100283.75
2023-03-19T00:27:58.385Z,100285.63
2023-03-19T00:30:27.268Z,100280.25
2023-03-19T00:32:57.148Z,100287.28
2023-03-19T00:35:25.152Z,100275.91
2023-03-19T00:37:53.134Z,100280.66
2023-03-19T00:40:21.094Z,100290.41
2023-03-19T00:42:49.064Z,100280.66
2023-03-19T00:45:17.500Z,100264.50
2023-03-19T00:47:45.524Z,100258.25
2023-03-19T00:50:14.806Z,100258.25
2023-03-19T00:52:42.735Z,100252.84
2023-03-19T00:55:11.031Z,100255.75
2023-03-19T00:57:39.007Z,100248.72
2023-03-19T01:00:08.737Z,100247.03
2023-03-19T01:02:36.694Z,100241.66
2023-03-19T01:05:04.799Z,100237.94
2023-03-19T01:07:34.127Z,100244.34
2023-03-19T01:10:02.142Z,100249.16
2023-03-19T01:12:30.057Z,100249.16
2023-03-19T01:14:57.996Z,100253.69
2023-03-19T01:17:25.995Z,100259.94
2023-03-19T01:19:53.932Z,100251.22
2023-03-19T01:22:21.897Z,100263.63
2023-03-19T01:24:51.476Z,100254.53
2023-03-19T01:27:19.414Z,100266.97
2023-03-19T01:29:47.415Z,100267.78
2023-03-19T01:32:15.335Z,100268.59
2023-03-19T01:34:43.262Z,100261.56
2023-03-19T01:37:11.362Z,100250.78
2023-03-19T01:39:39.271Z,100254.31
2023-03-19T01:42:08.743Z,100256.81
2023-03-19T01:44:37.608Z,100256.19
2023-03-19T01:47:07.441Z,100247.03
2023-03-19T01:49:35.517Z,100244.34
2023-03-19T01:52:04.173Z,100233.78
2023-03-19T01:54:32.414Z,100227.56
2023-03-19T01:57:03.552Z,100232.97
2023-03-19T01:59:34.111Z,100221.34
2023-03-19T02:02:03.563Z,100220.50
2023-03-19T02:04:32.230Z,100206.22
2023-03-19T02:07:00.466Z,100218.88
2023-03-19T02:09:28.422Z,100200.19
2023-03-19T02:11:56.598Z,100197.31
2023-03-19T02:14:24.638Z,100209.09
2023-03-19T02:16:54.073Z,100200.19
2023-03-19T02:19:24.286Z,100199.56
2023-03-19T02:21:52.264Z,100197.31
2023-03-19T02:24:21.995Z,100199.81
2023-03-19T02:26:51.609Z,100201.69
2023-03-19T02:29:19.539Z,100201.88
2023-03-19T02:31:47.601Z,100203.75
2023-03-19T02:34:39.267Z,100207.28
2023-03-19T02:37:10.560Z,100211.00
2023-03-19T02:39:42.593Z,100205.63
2023-03-19T02:42:12.342Z,100205.63
2023-03-19T02:44:40.235Z,100209.34
2023-03-19T02:47:08.309Z,100203.53
2023-03-19T02:49:37.147Z,100198.13
2023-03-19T02:52:05.381Z,100193.78
2023-03-19T02:54:33.363Z,100189.22
2023-03-19T02:57:01.311Z,100202.50
2023-03-19T02:59:32.821Z,100199.81
2023-03-19T03:02:00.844Z,100201.06
2023-03-19T03:04:29.236Z,100198.13
2023-03-19T03:06:57.871Z,100200.00
2023-03-19T03:09:25.849Z,100201.06
2023-03-19T03:11:53.920Z,100211.00
2023-03-19T03:14:22.195Z,100203.94
2023-03-19T03:16:51.555Z,100196.09
2023-03-19T03:19:19.575Z,100206.88
2023-03-19T03:21:48.081Z,100200.66
2023-03-19T03:24:16.157Z,100204.38
2023-03-19T03:26:44.299Z,100197.34
2023-03-19T03:29:12.262Z,100186.56
2023-03-19T03:31:40.300Z,100194.03
2023-03-19T03:34:09.658Z,100178.69
2023-03-19T03:36:37.782Z,100188.63
2023-03-19T03:39:05.763Z,100182.19
2023-03-19T03:41:33.712Z,100180.75
2023-03-19T03:44:01.895Z,100173.72
2023-03-19T03:46:29.871Z,100171.84
2023-03-19T03:48:57.830Z,100166.69
2023-03-19T03:51:27.650Z,100173.72
2023-03-19T03:53:55.721Z,100175.38
2023-03-19T03:56:23.784Z,100171.66
2023-03-19T03:58:52.415Z,100180.56
2023-03-19T04:01:20.450Z,100178.06
2023-03-19T04:03:48.434Z,100171.66
2023-03-19T04:06:17.047Z,100172.06
2023-03-19T04:09:23.505Z,100176.81
2023-03-19T04:11:52.882Z,100180.56
2023-03-19T04:14:20.885Z,100173.28
2023-03-19T04:16:48.889Z,100168.94
2023-03-19T04:19:16.993Z,100172.47
2023-03-19T04:21:45.037Z,100177.03
2023-03-19T04:24:13.060Z,100172.91
2023-03-19T04:26:41.068Z,100177.47
2023-03-19T04:29:10.380Z,100180.16
2023-03-19T04:31:38.390Z,100183.69
2023-03-19T04:34:06.534Z,100186.56
2023-03-19T04:36:34.565Z,100187.41
2023-03-19T04:39:02.493Z,100186.81
2023-03-19T04:41:30.522Z,100181.41
2023-03-19T04:43:58.406Z,100177.88
2023-03-19T04:46:27.774Z,100177.03
2023-03-19T04:48:56.097Z,100184.31
2023-03-19T04:51:24.166Z,100175.41
2023-03-19T04:53:52.121Z,100180.78
2023-03-19T04:56:20.081Z,100179.16
2023-03-19T04:58:48.155Z,100180.78
2023-03-19T05:01:16.098Z,100173.75
2023-03-19T05:03:45.588Z,100180.78
2023-03-19T05:06:13.998Z,100178.09
2023-03-19T05:09:15.837Z,100177.03
2023-03-19T05:11:43.836Z,100182.44
2023-03-19T05:14:11.905Z,100194.88
2023-03-19T05:16:39.811Z,100188.66
2023-03-19T05:19:09.196Z,100189.50
2023-03-19T05:21:37.157Z,100188.66
2023-03-19T05:24:05.252Z,100193.00
2023-03-19T05:26:33.326Z,100195.72
2023-03-19T05:29:01.300Z,100210.00
2023-03-19T05:31:29.297Z,100205.66
2023-03-19T05:33:57.285Z,100204.00
2023-03-19T05:36:26.763Z,100218.53
2023-03-19T05:38:54.762Z,100213.13
2023-03-19T05:41:22.802Z,100222.03
2023-03-19T05:43:51.374Z,100218.53
2023-03-19T05:46:19.356Z,100210.22
2023-03-19T05:48:47.483Z,100208.56
2023-03-19T05:51:15.422Z,100218.53
2023-03-19T05:53:44.829Z,100210.22
2023-03-19T05:56:12.851Z,100214.78
2023-03-19T05:58:40.820Z,100217.47
2023-03-19T06:01:08.887Z,100215.41
2023-03-19T06:03:37.355Z,100207.94
2023-03-19T06:06:05.905Z,100206.88
2023-03-19T06:08:33.811Z,100206.69
2023-03-19T06:11:03.172Z,100215.59
2023-03-19T06:13:31.329Z,100216.66
2023-03-19T06:15:59.404Z,100211.84
2023-03-19T06:18:27.462Z,100221.38
2023-03-19T06:20:55.502Z,100236.53
2023-03-19T06:23:23.394Z,100242.75
2023-03-19T06:25:51.361Z,100239.00
2023-03-19T06:28:20.776Z,100238.78
2023-03-19T06:30:48.694Z,100245.00
2023-03-19T06:33:16.633Z,100251.03
2023-03-19T06:35:44.693Z,100249.97
2023-03-19T06:38:12.705Z,100250.78
2023-03-19T06:40:40.621Z,100252.91
2023-03-19T06:43:08.837Z,100256.19
2023-03-19T06:45:38.139Z,100260.31
2023-03-19T06:48:06.909Z,100257.63
2023-03-19T06:50:34.968Z,100255.56
2023-03-19T06:53:03.558Z,100258.25
2023-03-19T06:55:31.598Z,100259.94
2023-03-19T06:57:59.605Z,100267.78
2023-03-19T07:00:27.923Z,100264.06
2023-03-19T07:02:57.155Z,100263.84
2023-03-19T07:05:25.112Z,100262.63
2023-03-19T07:07:53.087Z,100252.44
2023-03-19T07:10:21.116Z,100265.72
2023-03-19T07:12:49.091Z,100266.56
2023-03-19T07:15:17.688Z,100277.13
2023-03-19T07:17:47.234Z,100274.00
2023-03-19T07:20:17.278Z,100276.28
2023-03-19T07:22:45.444Z,100269.03
2023-03-19T07:25:13.380Z,100266.09
2023-03-19T07:27:41.422Z,100264.00
2023-03-19T07:30:11.007Z,100261.94
2023-03-19T07:32:39.076Z,100256.31
2023-03-19T07:35:08.556Z,100254.47
2023-03-19T07:40:07.460Z,100260.25
2023-03-19T07:42:36.590Z,100260.88
2023-03-19T07:45:04.847Z,100254.44
2023-03-19T07:47:32.905Z,100255.88
2023-03-19T07:50:01.031Z,100258.56
2023-03-19T07:52:28.990Z,100249.22
2023-03-19T07:54:58.415Z,100262.28
2023-03-19T07:57:27.252Z,100267.47
2023-03-19T07:59:55.300Z,100263.50
2023-03-19T08:02:23.825Z,100275.13
2023-03-19T08:04:52.219Z,100276.78
2023-03-19T08:07:20.301Z,100280.09
2023-03-19T08:09:48.291Z,100279.88
2023-03-19T08:12:17.808Z,100286.72
2023-03-19T08:14:45.753Z,100277.56
2023-03-19T08:17:13.808Z,100286.28
2023-03-19T08:19:41.785Z,100282.53
2023-03-19T08:22:09.795Z,100284.22
2023-03-19T08:24:37.806Z,100288.34
2023-03-19T08:27:05.999Z,100281.69
2023-03-19T08:29:35.629Z,100286.66
2023-03-19T08:32:03.865Z,100285.59
2023-03-19T08:34:31.851Z,100283.53
2023-03-19T08:36:59.867Z,100273.34
2023-03-19T08:39:27.811Z,100282.88
2023-03-19T08:41:55.874Z,100279.94
2023-03-19T08:44:24.093Z,100287.03
2023-03-19T08:46:53.409Z,100280.38
2023-03-19T08:49:21.621Z,100280.94
2023-03-19T08:51:49.862Z,100283.66
2023-03-19T08:54:17.774Z,100286.78
2023-03-19T08:56:45.731Z,100284.91
2023-03-19T08:59:13.781Z,100291.13
2023-03-19T09:01:41.947Z,100290.09
2023-03-19T09:04:11.460Z,100300.47
2023-03-19T09:06:39.508Z,100298.59
2023-03-19T09:09:07.578Z,100290.25
2023-03-19T09:11:35.649Z,100294.41
2023-03-19T09:14:04.121Z,100284.44
2023-03-19T09:16:32.554Z,100281.50
2023-03-19T09:19:00.487Z,100289.41
2023-03-19T09:21:29.844Z,100289.16
2023-03-19T09:23:57.838Z,100283.56
2023-03-19T09:26:25.926Z,100285.00
2023-03-19T09:28:53.807Z,100286.44
2023-03-19T09:31:21.899Z,100286.22
2023-03-19T09:33:49.874Z,100299.31
2023-03-19T09:36:17.996Z,100291.78
2023-03-19T09:38:47.765Z,100288.88
2023-03-19T09:41:18.068Z,100282.41
2023-03-19T09:43:57.308Z,100291.13
2023-03-19T09:46:27.892Z,100285.53
2023-03-19T09:48:57.626Z,100281.56
2023-03-19T09:51:27.804Z,100291.31
2023-03-19T09:53:57.550Z,100290.25
2023-03-19T09:56:26.056Z,100290.88
2023-03-19T09:58:54.118Z,100281.72
2023-03-19T10:01:28.071Z,100280.69
2023-03-19T10:04:05.681Z,100270.47
2023-03-19T10:06:35.624Z,100276.47
2023-03-19T10:09:22.395Z,100263.56
2023-03-19T10:11:57.672Z,100257.16
2023-03-19T10:14:42.921Z,100257.72
2023-03-19T10:17:13.992Z,100256.69
2023-03-19T10:19:44.342Z,100259.16
2023-03-19T10:22:13.932Z,100249.19
2023-03-19T10:24:43.559Z,100264.16
2023-03-19T10:27:13.443Z,100263.91
2023-03-19T10:29:41.525Z,100264.50
2023-03-19T10:32:14.950Z,100262.44
2023-03-19T10:34:43.517Z,100259.47
2023-03-19T10:37:16.540Z,100257.41
2023-03-19T10:39:46.416Z,100247.19
2023-03-19T10:42:34.191Z,100254.84
2023-03-19T10:45:04.980Z,100240.28
2023-03-19T10:47:39.077Z,100239.03
2023-03-19T10:50:08.049Z,100245.06
2023-03-19T10:52:36.555Z,100244.84
2023-03-19T10:55:08.607Z,100234.84
2023-03-19T10:57:36.630Z,100235.47
2023-03-19T11:00:05.585Z,100229.81
2023-03-19T11:02:33.617Z,100230.63
2023-03-19T11:05:10.346Z,100227.72
2023-03-19T11:07:38.490Z,100214.00
2023-03-19T11:10:10.691Z,100209.41
2023-03-19T11:12:39.060Z,100207.53
2023-03-19T11:15:16.934Z,100209.78
2023-03-19T11:17:47.504Z,100199.78
2023-03-19T11:20:23.610Z,100197.06
2023-03-19T11:22:52.621Z,100192.50
2023-03-19T11:25:25.883Z,100182.28
2023-03-19T11:27:59.510Z,100187.69
2023-03-19T11:30:27.469Z,100185.59
2023-03-19T11:33:07.384Z,100188.09
2023-03-19T11:35:37.482Z,100181.63
2023-03-19T11:38:05.842Z,100187.63
2023-03-19T11:40:41.374Z,100183.88
2023-03-19T11:43:36.810Z,100172.22
2023-03-19T11:46:06.395Z,100172.22
2023-03-19T11:48:44.919Z,100174.94
2023-03-19T11:51:16.153Z,100170.59
2023-03-19T11:53:53.350Z,100170.59
2023-03-19T11:56:35.845Z,100176.22
2023-03-19T11:59:29.569Z,100178.91
2023-03-19T12:02:10.478Z,100173.72
2023-03-19T12:05:12.824Z,100172.06
2023-03-19T12:07:43.716Z,100165.03
2023-03-19T12:10:28.964Z,100165.03
2023-03-19T12:13:03.504Z,100165.03
2023-03-19T12:15:35.083Z,100156.06
2023-03-19T12:18:07.259Z,100149.84
2023-03-19T12:20:42.552Z,100159.03
2023-03-19T12:23:16.774Z,100153.63
2023-03-19T12:25:52.983Z,100154.44
2023-03-19T12:28:25.008Z,100156.91
2023-03-19T12:31:02.076Z,100148.81
2023-03-19T12:33:36.659Z,100140.91
2023-03-19T12:36:04.737Z,100135.50
2023-03-19T12:38:35.572Z,100138.22
2023-03-19T12:41:05.009Z,100139.28
2023-03-19T12:43:36.283Z,100131.16
2023-03-19T12:46:08.102Z,100132.81
2023-03-19T12:48:39.257Z,100130.31
2023-03-19T12:51:10.483Z,100129.50
2023-03-19T12:53:44.767Z,100123.25
2023-03-19T12:56:14.593Z,100123.25
2023-03-19T12:58:50.947Z,100114.09
2023-03-19T13:01:22.341Z,100103.28
2023-03-19T13:03:54.099Z,100098.72
2023-03-19T13:06:24.324Z,100101.66
2023-03-19T13:08:53.969Z,100104.94
2023-03-19T13:11:25.672Z,100105.97
2023-03-19T13:13:57.283Z,100111.38
2023-03-19T13:16:32.835Z,100110.34
2023-03-19T13:19:05.726Z,100110.34
2023-03-19T13:21:34.294Z,100099.53
2023-03-19T13:24:05.883Z,100097.66
2023-03-19T13:26:34.704Z,100098.25
2023-03-19T13:29:08.886Z,100092.03
2023-03-19T13:31:37.165Z,100088.28
2023-03-19T13:34:05.987Z,100084.50
2023-03-19T13:36:38.096Z,100087.00
2023-03-19T13:39:06.162Z,100086.16
2023-03-19T13:41:52.866Z,100075.34
2023-03-19T13:44:30.200Z,100087.00
2023-03-19T13:46:58.804Z,100077.81
2023-03-19T13:49:32.133Z,100079.47
2023-03-19T13:52:12.887Z,100077.81
2023-03-19T13:54:41.225Z,100071.38
2023-03-19T13:57:21.013Z,100062.44
2023-03-19T13:59:51.002Z,100073.25
2023-03-19T14:02:49.864Z,100064.06
2023-03-19T14:05:19.661Z,100057.03
2023-03-19T14:07:55.972Z,100064.91
2023-03-19T14:10:25.923Z,100064.06
2023-03-19T14:12:59.706Z,100053.25
2023-03-19T14:15:30.653Z,100054.31
2023-03-19T14:18:30.627Z,100054.09
2023-03-19T14:21:00.800Z,100049.50
2023-03-19T14:23:40.786Z,100054.91
2023-03-19T14:26:18.653Z,100047.38
2023-03-19T14:28:49.972Z,100046.56
2023-03-19T14:31:23.605Z,100049.41
2023-03-19T14:33:54.218Z,100045.44
2023-03-19T14:36:22.203Z,100053.06
2023-03-19T14:38:51.652Z,100041.78
2023-03-19T14:41:21.477Z,100043.00
2023-03-19T14:44:25.004Z,100038.16
2023-03-19T14:47:04.439Z,100042.06
2023-03-19T14:49:58.435Z,100039.69
2023-03-19T14:52:26.701Z,100028.66
2023-03-19T14:54:56.082Z,100028.66
2023-03-19T14:57:27.465Z,100031.97
2023-03-19T14:59:55.566Z,100029.88
2023-03-19T15:02:33.713Z,100030.56
2023-03-19T15:05:02.531Z,100030.50
2023-03-19T15:07:31.824Z,100036.38
2023-03-19T15:10:01.309Z,100027.31
2023-03-19T15:13:14.450Z,100030.41
2023-03-19T15:15:54.260Z,100032.97
2023-03-19T15:18:23.627Z,100032.50
2023-03-19T15:20:54.334Z,100032.06
2023-03-19T15:23:27.418Z,100036.63
2023-03-19T15:25:57.961Z,100032.75
2023-03-19T15:28:26.471Z,100042.16
2023-03-19T15:31:06.372Z,100045.47
2023-03-19T15:33:46.180Z,100031.09
2023-03-19T15:36:17.627Z,100036.16
2023-03-19T15:38:46.892Z,100038.28
2023-03-19T15:41:14.803Z,100041.44
2023-03-19T15:43:42.830Z,100041.44
2023-03-19T15:46:12.967Z,100045.69
2023-03-19T15:48:43.700Z,100045.78
2023-03-19T15:51:11.759Z,100048.38
2023-03-19T15:53:39.907Z,100054.69
2023-03-19T15:56:08.869Z,100059.97
2023-03-19T15:58:39.468Z,100044.91
2023-03-19T16:01:08.235Z,100054.50
2023-03-19T16:03:38.961Z,100044.63
2023-03-19T16:06:13.384Z,100054.28
2023-03-19T16:08:47.537Z,100046.03
2023-03-19T16:11:17.601Z,100051.88
2023-03-19T16:13:53.875Z,100048.22
2023-03-19T16:16:22.579Z,100057.59
2023-03-19T16:18:53.678Z,100059.13
2023-03-19T16:21:24.578Z,100055.22
2023-03-19T16:23:57.205Z,100059.44
2023-03-19T16:26:26.189Z,100053.44
2023-03-19T16:28:59.581Z,100058.25
2023-03-19T16:31:29.913Z,100059.78
2023-03-19T16:33:57.925Z,100058.34
2023-03-19T16:36:29.185Z,100063.16
2023-03-19T16:38:58.720Z,100063.59
2023-03-19T18:57:53.408Z,100114.28
2023-03-19T19:00:22.650Z,100116.75
2023-03-19T19:02:50.675Z,100116.13
2023-03-19T19:05:19.107Z,100119.69
2023-03-19T19:07:47.102Z,100118.00
2023-03-19T19:10:15.475Z,100109.91
2023-03-19T19:20:31.909Z,100117.19
2023-03-19T19:22:59.886Z,100119.69
2023-03-19T19:29:22.930Z,100121.53
2023-03-19T19:31:50.968Z,100125.88
2023-03-19T19:34:18.968Z,100118.00
2023-03-19T19:36:48.361Z,100124.22
2023-03-19T19:39:16.388Z,100116.97
2023-03-19T19:45:36.497Z,100125.06
2023-03-19T19:48:05.091Z,100122.38
2023-03-19T19:50:33.236Z,100121.31
2023-03-19T19:53:02.671Z,100123.41
2023-03-19T19:55:30.682Z,100113.44
2023-03-19T19:57:58.659Z,100119.69
2023-03-19T20:00:27.297Z,100123.41
2023-03-19T20:26:37.139Z,100117.22
2023-03-19T20:29:07.848Z,100126.38
2023-03-19T20:31:37.034Z,100120.97
2023-03-19T20:45:37.928Z,100121.41
2023-03-19T21:04:40.679Z,100126.44
2023-03-19T21:07:11.951Z,100121.88
2023-03-19T21:09:39.969Z,100121.88
2023-03-19T21:12:11.744Z,100125.38
2023-03-19T21:14:41.252Z,100128.91
2023-03-19T21:21:56.176Z,100127.03
2023-03-19T21:24:26.321Z,100117.28
2023-03-19T21:26:56.152Z,100118.94
2023-03-19T21:29:27.706Z,100118.09
2023-03-19T21:31:56.710Z,100119.78
2023-03-19T21:49:50.194Z,100131.22
2023-03-19T21:52:19.856Z,100132.03
2023-03-19T21:54:48.600Z,100135.81
2023-03-19T21:57:16.737Z,100137.44
2023-03-19T21:59:45.307Z,100138.25
2023-03-19T22:02:36.856Z,100128.72
2023-03-19T22:05:17.736Z,100126.84
2023-03-19T22:07:45.996Z,100116.91
2023-03-19T22:10:14.048Z,100119.59
2023-03-19T22:12:42.421Z,100112.53
2023-03-19T22:15:30.466Z,100114.41
2023-03-19T22:21:50.583Z,100117.94
2023-03-19T22:24:18.465Z,100108.22
2023-03-19T22:26:46.859Z,100107.38
2023-03-19T22:29:15.886Z,100110.28
2023-03-19T22:31:43.943Z,100113.00
2023-03-19T22:34:14.235Z,100121.09
2023-03-19T22:36:42.134Z,100118.38
2023-03-19T22:39:11.584Z,100118.38
2023-03-19T22:41:42.424Z,100116.50
2023-03-19T22:44:14.072Z,100112.16
2023-03-19T22:46:42.127Z,100121.31
2023-03-19T22:49:12.836Z,100114.03
2023-03-19T22:51:40.761Z,100115.06
2023-03-19T22:54:08.720Z,100106.38
2023-03-19T22:56:37.975Z,100108.03
2023-03-19T22:59:06.031Z,100098.31
2023-03-19T23:01:36.396Z,100094.75
2023-03-19T23:04:59.265Z,100102.03
2023-03-19T23:07:28.443Z,100096.63
2023-03-19T23:09:56.917Z,100097.69
2023-03-19T23:12:26.602Z,100102.03
2023-03-19T23:14:54.892Z,100098.72
2023-03-19T23:17:22.983Z,100108.47
2023-03-19T23:19:51.295Z,100104.97
2023-03-19T23:22:19.302Z,100104.09
2023-03-19T23:24:47.267Z,100100.59
2023-03-19T23:27:22.237Z,100101.41
2023-03-19T23:29:51.661Z,100095.44
2023-03-19T23:32:19.567Z,100100.81
2023-03-19T23:34:58.041Z,100104.56
2023-03-19T23:37:27.358Z,100104.56
2023-03-19T23:39:56.356Z,100109.31
2023-03-19T23:42:27.837Z,100099.38
2023-03-19T23:44:57.579Z,100102.28
2023-03-19T23:47:25.675Z,100099.59
2023-03-19T23:49:53.658Z,100107.47
2023-03-19T23:52:21.887Z,100096.91
2023-03-19T23:54:49.828Z,100106.63
2023-03-19T23:57:17.824Z,100102.28
2023-03-19T23:59:47.133Z,100093.38
